createdAt,value
2023-01-17T00:00:26.344Z,50.70
2023-01-17T00:03:27.747Z,50.50
2023-01-17T00:06:43.745Z,50.70
2023-01-17T00:09:59.672Z,50.70
2023-01-17T00:13:02.544Z,50.60
2023-01-17T00:16:04.019Z,50.50
2023-01-17T00:19:20.024Z,50.40
2023-01-17T00:22:34.531Z,50.80
2023-01-17T00:25:51.930Z,50.60
2023-01-17T00:28:53.501Z,50.40
2023-01-17T00:31:54.560Z,50.60
2023-01-17T00:34:55.593Z,50.00
2023-01-17T00:38:00.441Z,50.70
2023-01-17T00:41:02.302Z,47.80
2023-01-17T00:44:14.534Z,50.30
2023-01-17T00:47:30.484Z,50.50
2023-01-17T00:50:44.537Z,50.40
2023-01-17T00:54:00.486Z,50.90
2023-01-17T00:57:14.598Z,50.50
2023-01-17T01:00:32.180Z,50.40
2023-01-17T01:03:44.547Z,50.50
2023-01-17T01:07:00.649Z,50.80
2023-01-17T01:10:14.550Z,50.50
2023-01-17T01:13:30.534Z,50.50
2023-01-17T01:16:44.549Z,50.10
2023-01-17T01:20:00.494Z,50.30
2023-01-17T01:23:14.534Z,50.60
2023-01-17T01:26:30.504Z,50.70
2023-01-17T01:29:44.530Z,50.40
2023-01-17T01:33:01.071Z,50.40
2023-01-17T01:36:02.480Z,50.50
2023-01-17T01:39:03.831Z,50.60
2023-01-17T01:42:09.068Z,50.70
2023-01-17T01:45:15.689Z,50.30
2023-01-17T01:48:22.079Z,50.30
2023-01-17T01:51:25.842Z,50.60
2023-01-17T01:54:28.752Z,50.40
2023-01-17T01:57:33.553Z,50.30
2023-01-17T02:00:35.955Z,50.30
2023-01-17T02:03:39.376Z,50.40
2023-01-17T02:06:43.094Z,50.60
2023-01-17T02:09:44.599Z,50.40
2023-01-17T02:12:46.368Z,50.60
2023-01-17T02:15:53.402Z,50.50
2023-01-17T02:19:00.790Z,50.60
2023-01-17T02:22:07.992Z,50.70
2023-01-17T02:25:18.919Z,50.50
2023-01-17T02:28:30.167Z,50.40
2023-01-17T02:31:33.577Z,50.40
2023-01-17T02:34:39.484Z,50.50
2023-01-17T02:37:44.703Z,50.70
2023-01-17T02:40:48.906Z,50.50
2023-01-17T02:43:50.797Z,50.60
2023-01-17T02:46:53.356Z,51.00
2023-01-17T02:49:56.029Z,50.50
2023-01-17T02:53:04.687Z,50.50
2023-01-17T02:56:10.527Z,50.50
2023-01-17T02:59:18.473Z,50.50
2023-01-17T03:02:26.161Z,50.50
2023-01-17T03:05:31.170Z,50.50
2023-01-17T03:08:33.088Z,50.60
2023-01-17T03:11:34.465Z,50.90
2023-01-17T03:14:35.734Z,50.90
2023-01-17T03:17:38.614Z,50.70
2023-01-17T03:20:40.249Z,50.90
2023-01-17T03:23:41.564Z,50.50
2023-01-17T03:26:44.183Z,50.50
2023-01-17T03:29:45.442Z,51.20
2023-01-17T03:32:47.394Z,50.80
2023-01-17T03:35:48.652Z,50.80
2023-01-17T03:38:50.065Z,50.70
2023-01-17T03:41:51.419Z,51.10
2023-01-17T03:44:52.678Z,50.90
2023-01-17T03:47:56.853Z,50.90
2023-01-17T03:50:58.285Z,50.80
2023-01-17T03:54:00.705Z,51.00
2023-01-17T03:57:01.973Z,50.50
2023-01-17T04:00:03.621Z,51.00
2023-01-17T04:03:09.030Z,50.80
2023-01-17T04:06:10.269Z,50.90
2023-01-17T04:09:11.765Z,50.90
2023-01-17T04:12:13.137Z,51.00
2023-01-17T04:15:14.452Z,51.20
2023-01-17T04:18:16.757Z,51.00
2023-01-17T04:21:18.205Z,50.90
2023-01-17T04:24:19.527Z,50.90
2023-01-17T04:27:20.813Z,51.10
2023-01-17T04:30:22.076Z,51.10
2023-01-17T04:33:24.108Z,51.10
2023-01-17T04:36:25.371Z,50.90
2023-01-17T04:39:26.718Z,51.10
2023-01-17T04:42:28.083Z,51.20
2023-01-17T04:45:29.318Z,51.20
2023-01-17T04:48:32.433Z,51.10
2023-01-17T04:51:33.677Z,51.00
2023-01-17T04:54:34.954Z,51.30
2023-01-17T04:57:36.273Z,51.30
2023-01-17T05:00:37.537Z,51.20
2023-01-17T05:03:39.468Z,51.40
2023-01-17T05:06:40.748Z,51.60
2023-01-17T05:09:43.165Z,51.30
2023-01-17T05:12:52.379Z,51.30
2023-01-17T05:15:53.697Z,51.10
2023-01-17T05:18:55.543Z,51.30
2023-01-17T05:22:02.932Z,51.30
2023-01-17T05:25:04.447Z,51.20
2023-01-17T05:28:05.803Z,51.20
2023-01-17T05:31:07.228Z,51.80
2023-01-17T05:34:09.454Z,51.20
2023-01-17T05:37:10.731Z,51.30
2023-01-17T05:40:12.468Z,51.30
2023-01-17T05:43:13.792Z,51.20
2023-01-17T05:46:17.180Z,51.50
2023-01-17T05:49:19.096Z,51.80
2023-01-17T05:52:20.871Z,51.40
2023-01-17T05:55:22.657Z,51.40
2023-01-17T05:58:24.006Z,51.20
2023-01-17T06:01:25.395Z,51.50
2023-01-17T06:04:27.413Z,51.30
2023-01-17T06:07:29.760Z,51.80
2023-01-17T06:10:31.317Z,51.00
2023-01-17T06:13:32.689Z,51.30
2023-01-17T06:16:34.511Z,51.70
2023-01-17T06:19:36.431Z,51.50
2023-01-17T06:22:37.722Z,51.60
2023-01-17T06:25:39.551Z,51.60
2023-01-17T06:28:40.960Z,51.40
2023-01-17T06:31:42.280Z,52.00
2023-01-17T06:34:44.063Z,51.10
2023-01-17T06:37:45.310Z,51.60
2023-01-17T06:40:46.802Z,51.60
2023-01-17T06:43:48.194Z,51.30
2023-01-17T06:46:49.545Z,51.40
2023-01-17T06:49:51.470Z,52.10
2023-01-17T06:52:54.781Z,51.60
2023-01-17T06:55:57.086Z,52.00
2023-01-17T06:58:58.508Z,51.50
2023-01-17T07:01:59.785Z,51.90
2023-01-17T07:05:01.721Z,51.50
2023-01-17T07:08:03.178Z,52.00
2023-01-17T07:11:05.494Z,51.50
2023-01-17T07:14:11.959Z,51.70
2023-01-17T07:17:13.265Z,51.50
2023-01-17T07:20:15.243Z,51.80
2023-01-17T07:23:16.577Z,51.70
2023-01-17T07:26:18.145Z,51.90
2023-01-17T07:29:19.606Z,51.20
2023-01-17T07:32:20.869Z,51.00
2023-01-17T07:35:25.766Z,51.50
2023-01-17T07:38:27.012Z,51.30
2023-01-17T07:41:30.314Z,51.40
2023-01-17T07:44:31.740Z,51.50
2023-01-17T07:47:33.172Z,51.10
2023-01-17T07:50:35.550Z,51.60
2023-01-17T07:53:36.824Z,51.30
2023-01-17T07:56:39.237Z,51.60
2023-01-17T07:59:40.532Z,50.60
2023-01-17T08:02:41.847Z,51.50
2023-01-17T08:05:51.762Z,50.80
2023-01-17T08:08:55.577Z,51.60
2023-01-17T08:11:57.385Z,51.10
2023-01-17T08:14:58.747Z,51.50
2023-01-17T08:18:00.194Z,51.10
2023-01-17T08:21:02.094Z,51.10
2023-01-17T08:24:03.918Z,51.10
2023-01-17T08:27:08.096Z,51.00
2023-01-17T08:30:09.835Z,51.10
2023-01-17T08:33:11.117Z,51.30
2023-01-17T08:36:13.330Z,50.60
2023-01-17T08:39:14.647Z,51.20
2023-01-17T08:42:16.184Z,50.70
2023-01-17T08:45:17.667Z,50.30
2023-01-17T08:48:18.958Z,50.60
2023-01-17T08:51:20.886Z,51.20
2023-01-17T08:54:23.251Z,50.70
2023-01-17T08:57:24.626Z,50.80
2023-01-17T09:00:27.698Z,50.80
2023-01-17T09:03:29.347Z,51.10
2023-01-17T09:06:36.853Z,50.70
2023-01-17T09:09:43.206Z,47.90
2023-01-17T09:12:44.712Z,50.90
2023-01-17T09:15:46.129Z,51.10
2023-01-17T09:18:47.474Z,50.50
2023-01-17T09:21:50.037Z,51.30
2023-01-17T09:24:51.521Z,50.70
2023-01-17T09:27:53.035Z,50.80
2023-01-17T09:30:54.669Z,50.40
2023-01-17T09:33:56.920Z,51.00
2023-01-17T09:36:58.893Z,50.90
2023-01-17T09:40:00.250Z,51.00
2023-01-17T09:43:04.486Z,50.30
2023-01-17T09:46:08.159Z,50.90
2023-01-17T09:49:13.964Z,50.40
2023-01-17T09:52:17.038Z,50.10
2023-01-17T09:55:18.851Z,50.70
2023-01-17T09:58:22.333Z,51.00
2023-01-17T10:01:27.647Z,50.40
2023-01-17T10:04:35.885Z,50.70
2023-01-17T10:07:42.708Z,50.50
2023-01-17T10:10:53.087Z,50.50
2023-01-17T10:14:00.911Z,50.50
2023-01-17T10:17:07.497Z,50.50
2023-01-17T10:20:15.354Z,49.30
2023-01-17T10:23:25.500Z,50.50
2023-01-17T10:26:27.611Z,50.40
2023-01-17T10:29:32.218Z,47.90
2023-01-17T10:32:34.589Z,50.40
2023-01-17T10:35:36.341Z,50.80
2023-01-17T10:38:38.520Z,50.60
2023-01-17T10:41:41.834Z,51.00
2023-01-17T10:44:48.268Z,50.70
2023-01-17T10:47:55.255Z,50.70
2023-01-17T10:50:59.036Z,50.90
2023-01-17T10:54:09.470Z,50.90
2023-01-17T10:57:13.212Z,50.60
2023-01-17T11:00:22.165Z,50.50
2023-01-17T11:03:23.956Z,50.30
2023-01-17T11:06:26.014Z,51.00
2023-01-17T11:09:36.604Z,50.20
2023-01-17T11:12:39.328Z,50.40
2023-01-17T11:15:45.502Z,50.40
2023-01-17T11:18:48.033Z,50.50
2023-01-17T11:21:51.461Z,50.20
2023-01-17T11:24:54.677Z,50.70
2023-01-17T11:27:58.977Z,50.80
2023-01-17T11:31:02.735Z,50.40
2023-01-17T11:34:06.855Z,50.30
2023-01-17T11:37:09.016Z,50.60
2023-01-17T11:40:18.303Z,50.40
2023-01-17T11:43:21.190Z,50.80
2023-01-17T11:46:23.429Z,50.30
2023-01-17T11:49:25.837Z,50.50
2023-01-17T11:52:32.314Z,50.60
2023-01-17T11:55:34.248Z,50.80
2023-01-17T11:58:37.778Z,50.70
2023-01-17T12:01:42.361Z,50.80
2023-01-17T12:04:46.508Z,50.20
2023-01-17T12:07:53.465Z,50.70
2023-01-17T12:11:00.642Z,50.60
2023-01-17T12:14:05.695Z,50.50
2023-01-17T12:17:14.037Z,50.50
2023-01-17T12:20:21.277Z,50.50
2023-01-17T12:23:34.603Z,50.70
2023-01-17T12:26:38.336Z,50.60
2023-01-17T12:29:45.844Z,50.40
2023-01-17T12:32:53.547Z,50.50
2023-01-17T12:35:56.198Z,50.30
2023-01-17T12:39:00.636Z,50.90
2023-01-17T12:42:05.035Z,50.50
2023-01-17T12:45:09.530Z,51.40
2023-01-17T12:48:12.054Z,50.50
2023-01-17T12:51:15.582Z,50.90
2023-01-17T12:54:18.898Z,50.70
2023-01-17T12:57:22.678Z,47.70
2023-01-17T13:00:25.985Z,50.70
2023-01-17T13:03:31.030Z,50.80
2023-01-17T13:06:39.660Z,50.60
2023-01-17T13:09:43.612Z,50.20
2023-01-17T13:12:46.306Z,50.70
2023-01-17T13:15:48.587Z,50.70
2023-01-17T13:18:51.034Z,50.90
2023-01-17T13:21:53.059Z,50.60
2023-01-17T13:24:59.487Z,50.80
2023-01-17T13:28:05.536Z,51.10
2023-01-17T13:31:13.721Z,50.70
2023-01-17T13:34:24.862Z,50.70
2023-01-17T13:37:40.395Z,50.80
2023-01-17T13:40:48.354Z,50.60
2023-01-17T13:44:04.979Z,51.00
2023-01-17T13:47:26.645Z,51.30
2023-01-17T13:50:42.900Z,50.90
2023-01-17T13:53:45.919Z,51.30
2023-01-17T13:56:47.334Z,51.00
2023-01-17T13:59:49.417Z,51.10
2023-01-17T14:02:51.152Z,51.00
2023-01-17T14:05:55.689Z,51.20
2023-01-17T14:09:00.005Z,50.90
2023-01-17T14:12:04.131Z,50.40
2023-01-17T14:15:18.196Z,51.00
2023-01-17T14:18:29.704Z,51.00
2023-01-17T14:21:32.192Z,50.90
2023-01-17T14:24:33.837Z,51.10
2023-01-17T14:27:39.383Z,51.40
2023-01-17T14:30:41.871Z,50.00
2023-01-17T14:33:43.227Z,51.30
2023-01-17T14:36:45.534Z,51.20
2023-01-17T14:39:48.306Z,51.00
2023-01-17T14:42:53.612Z,51.60
2023-01-17T14:45:57.562Z,51.40
2023-01-17T14:48:59.762Z,51.00
2023-01-17T14:52:01.573Z,51.30
2023-01-17T14:55:14.554Z,51.50
2023-01-17T14:58:16.313Z,51.20
2023-01-17T15:01:19.941Z,51.50
2023-01-17T15:04:24.647Z,51.40
2023-01-17T15:07:26.541Z,52.10
2023-01-17T15:10:29.327Z,50.70
2023-01-17T15:13:43.459Z,51.60
2023-01-17T15:16:46.137Z,51.20
2023-01-17T15:19:50.040Z,51.60
2023-01-17T15:22:51.576Z,51.40
2023-01-17T15:25:53.489Z,51.70
2023-01-17T15:29:01.194Z,51.40
2023-01-17T15:32:04.356Z,51.90
2023-01-17T15:35:07.375Z,51.50
2023-01-17T15:38:13.921Z,48.60
2023-01-17T15:41:15.770Z,51.30
2023-01-17T15:44:46.995Z,52.10
2023-01-17T15:47:49.735Z,51.50
2023-01-17T15:50:57.124Z,51.80
2023-01-17T15:53:58.630Z,51.60
2023-01-17T15:57:02.348Z,51.90
2023-01-17T16:00:06.825Z,51.80
2023-01-17T16:03:20.980Z,52.20
2023-01-17T16:06:34.912Z,51.80
2023-01-17T16:09:41.534Z,51.40
2023-01-17T16:12:42.823Z,52.10
2023-01-17T16:15:44.138Z,52.30
2023-01-17T16:18:46.337Z,52.10
2023-01-17T16:21:47.715Z,52.60
2023-01-17T16:24:49.056Z,52.40
2023-01-17T16:27:51.487Z,52.90
2023-01-17T16:30:53.386Z,52.40
2023-01-17T16:33:56.361Z,52.70
2023-01-17T16:36:57.664Z,52.60
2023-01-17T16:39:58.973Z,54.10
2023-01-17T16:43:00.469Z,55.80
2023-01-17T16:46:01.838Z,56.90
2023-01-17T16:49:04.057Z,58.30
2023-01-17T16:52:05.413Z,60.20
2023-01-17T16:55:08.035Z,60.00
2023-01-17T16:58:10.611Z,61.70
2023-01-17T17:01:14.927Z,62.80
2023-01-17T17:04:16.862Z,66.70
2023-01-17T17:07:18.229Z,59.70
2023-01-17T17:10:21.152Z,58.50
2023-01-17T17:13:22.768Z,59.10
2023-01-17T17:16:25.763Z,58.70
2023-01-17T17:19:27.725Z,58.60
2023-01-17T17:22:29.000Z,59.40
2023-01-17T17:25:30.359Z,59.00
2023-01-17T17:28:31.868Z,59.30
2023-01-17T17:31:33.300Z,58.40
2023-01-17T17:34:37.411Z,59.40
2023-01-17T17:37:38.740Z,58.90
2023-01-17T17:40:39.999Z,58.00
2023-01-17T17:43:41.433Z,58.50
2023-01-17T17:46:43.697Z,58.70
2023-01-17T17:49:45.590Z,58.70
2023-01-17T17:52:47.235Z,58.60
2023-01-17T17:55:49.924Z,58.40
2023-01-17T17:58:51.747Z,57.70
2023-01-17T18:01:53.204Z,57.70
2023-01-17T18:04:55.084Z,58.80
2023-01-17T18:07:56.689Z,58.50
2023-01-17T18:10:58.775Z,57.70
2023-01-17T18:14:00.986Z,58.10
2023-01-17T18:17:02.295Z,58.70
2023-01-17T18:20:06.673Z,58.20
2023-01-17T18:23:08.873Z,58.40
2023-01-17T18:26:18.594Z,58.50
2023-01-17T18:29:21.351Z,58.70
2023-01-17T18:32:22.666Z,58.30
2023-01-17T18:35:24.538Z,58.80
2023-01-17T18:38:28.050Z,58.90
2023-01-17T18:41:30.367Z,58.00
2023-01-17T18:44:31.732Z,58.50
2023-01-17T18:47:33.057Z,58.20
2023-01-17T18:50:34.890Z,58.20
2023-01-17T18:53:36.883Z,59.30
2023-01-17T18:56:38.293Z,58.90
2023-01-17T18:59:39.679Z,59.30
2023-01-17T19:02:42.057Z,59.10
2023-01-17T19:05:43.953Z,59.80
2023-01-17T19:08:45.433Z,59.30
2023-01-17T19:11:46.784Z,58.70
2023-01-17T19:14:48.063Z,59.40
2023-01-17T19:17:49.667Z,60.10
2023-01-17T19:20:51.642Z,59.30
2023-01-17T19:23:53.350Z,59.70
2023-01-17T19:26:55.373Z,59.50
2023-01-17T19:29:56.740Z,59.30
2023-01-17T19:32:58.161Z,59.80
2023-01-17T19:36:00.446Z,60.30
2023-01-17T19:39:05.546Z,59.70
2023-01-17T19:42:13.379Z,59.90
2023-01-17T19:45:14.783Z,59.40
2023-01-17T19:48:16.103Z,59.90
2023-01-17T19:51:18.077Z,58.80
2023-01-17T19:54:19.407Z,60.00
2023-01-17T19:57:23.428Z,59.40
2023-01-17T20:00:30.098Z,59.90
2023-01-17T20:03:31.704Z,59.70
2023-01-17T20:06:34.882Z,58.90
2023-01-17T20:09:36.272Z,58.80
2023-01-17T20:12:37.723Z,60.00
2023-01-17T20:15:39.021Z,59.20
2023-01-17T20:18:40.627Z,59.80
2023-01-17T20:21:42.505Z,59.30
2023-01-17T20:24:43.819Z,60.00
2023-01-17T20:27:45.355Z,59.20
2023-01-17T20:30:46.704Z,59.30
2023-01-17T20:33:49.532Z,59.60
2023-01-17T20:36:53.132Z,60.20
2023-01-17T20:39:54.515Z,60.00
2023-01-17T20:42:55.772Z,60.20
2023-01-17T20:45:57.133Z,60.00
2023-01-17T20:49:00.243Z,59.70
2023-01-17T20:52:02.322Z,59.70
2023-01-17T20:55:03.918Z,59.50
2023-01-17T20:58:05.299Z,59.40
2023-01-17T21:01:08.871Z,59.80
2023-01-17T21:04:10.348Z,59.50
2023-01-17T21:07:12.239Z,60.10
2023-01-17T21:10:13.784Z,58.80
2023-01-17T21:13:15.244Z,59.30
2023-01-17T21:16:17.419Z,59.20
2023-01-17T21:19:20.580Z,59.70
2023-01-17T21:22:22.449Z,59.80
2023-01-17T21:25:23.773Z,60.20
2023-01-17T21:28:26.141Z,59.60
2023-01-17T21:31:29.090Z,60.00
2023-01-17T21:34:32.720Z,59.50
2023-01-17T21:37:35.070Z,59.40
2023-01-17T21:40:36.481Z,59.80
2023-01-17T21:43:37.725Z,59.80
2023-01-17T21:46:39.995Z,59.80
2023-01-17T21:49:41.317Z,59.50
2023-01-17T21:52:44.360Z,59.20
2023-01-17T21:56:01.224Z,60.00
2023-01-17T21:59:02.616Z,59.40
2023-01-17T22:02:04.011Z,59.40
2023-01-17T22:05:05.796Z,59.20
2023-01-17T22:08:10.594Z,59.50
2023-01-17T22:11:13.122Z,58.90
2023-01-17T22:14:14.713Z,59.40
2023-01-17T22:17:15.998Z,59.70
2023-01-17T22:20:18.565Z,60.10
2023-01-17T22:23:21.663Z,59.70
2023-01-17T22:26:24.000Z,59.60
2023-01-17T22:29:25.365Z,60.00
2023-01-17T22:32:26.680Z,60.20
2023-01-17T22:35:27.930Z,59.10
2023-01-17T22:38:30.123Z,59.80
2023-01-17T22:41:33.839Z,58.90
2023-01-17T22:44:35.087Z,59.40
2023-01-17T22:47:36.604Z,59.60
2023-01-17T22:50:37.833Z,59.70
2023-01-17T22:53:40.471Z,59.50
2023-01-17T22:56:41.782Z,58.90
2023-01-17T22:59:43.160Z,58.90
2023-01-17T23:02:44.553Z,59.80
2023-01-17T23:05:46.000Z,59.70
2023-01-17T23:08:49.036Z,60.20
2023-01-17T23:11:51.966Z,58.70
2023-01-17T23:15:07.899Z,59.30
2023-01-17T23:18:23.887Z,59.40
2023-01-17T23:21:45.076Z,59.90
2023-01-17T23:24:49.008Z,59.60
2023-01-17T23:28:04.742Z,59.60
2023-01-17T23:31:07.814Z,60.00
2023-01-17T23:34:09.213Z,59.50
2023-01-17T23:37:10.438Z,59.40
2023-01-17T23:40:12.427Z,59.70
2023-01-17T23:43:24.807Z,59.80
2023-01-17T23:46:26.462Z,59.80
2023-01-17T23:49:30.516Z,59.50
2023-01-17T23:52:31.750Z,59.60
2023-01-17T23:55:35.671Z,59.50
2023-01-17T23:58:36.912Z,59.20
